Time;durP1;ratioP1;P1;durP2;ratioP2;P2;SDS_P1;SDS_P2;PMS_P1;PMS_P2;Temp;Humidity;BMP_temperature;BMP_pressure;BME280_temperature;BME280_humidity;BME280_pressure;Samples;Min_cycle;Max_cycle;Signal;HPM_P1;HPM_P2
2022/04/08 00:00:18;;;;;;;6.03;3.77;;;6.10;99.90;;;;;;5044216;28;20281;-51
2022/04/08 00:02:49;;;;;;;4.20;3.53;;;6.10;99.90;;;;;;5051572;28;20220;-52
2022/04/08 00:05:17;;;;;;;6.10;3.60;;;6.20;99.90;;;;;;5052659;28;20205;-52
2022/04/08 00:07:45;;;;;;;6.37;3.33;;;6.30;99.90;;;;;;5052783;28;20608;-52
2022/04/08 00:10:13;;;;;;;7.23;3.60;;;6.20;99.90;;;;;;5052266;28;20222;-52
2022/04/08 00:12:42;;;;;;;6.33;3.87;;;6.20;99.90;;;;;;5051980;28;20341;-52
2022/04/08 00:15:12;;;;;;;6.80;3.70;;;6.30;99.90;;;;;;5052474;28;20216;-52
2022/04/08 00:17:40;;;;;;;10.07;4.70;;;6.30;99.90;;;;;;5051543;28;20356;-51
2022/04/08 00:20:09;;;;;;;9.30;4.60;;;6.30;99.90;;;;;;5050279;28;20221;-52
2022/04/08 00:22:40;;;;;;;8.23;3.83;;;6.30;99.90;;;;;;5051249;28;20216;-52
2022/04/08 00:25:10;;;;;;;6.33;4.07;;;6.40;99.90;;;;;;5052155;28;20211;-52
2022/04/08 00:27:38;;;;;;;6.27;3.93;;;6.50;99.90;;;;;;5051651;28;20687;-52
2022/04/08 00:30:07;;;;;;;6.10;3.90;;;6.40;99.90;;;;;;5052013;28;20201;-52
2022/04/08 00:32:37;;;;;;;5.80;4.40;;;6.40;99.90;;;;;;5051304;28;20213;-51
2022/04/08 00:35:05;;;;;;;6.57;3.80;;;6.50;99.90;;;;;;5051436;28;20211;-52
2022/04/08 00:37:34;;;;;;;8.23;4.07;;;6.50;99.90;;;;;;5032117;28;20210;-52
2022/04/08 00:40:02;;;;;;;7.07;4.03;;;6.40;99.90;;;;;;5031806;28;20277;-51
2022/04/08 00:42:30;;;;;;;6.37;3.70;;;6.50;99.90;;;;;;5031484;28;20215;-52
2022/04/08 00:44:59;;;;;;;7.10;4.07;;;6.50;99.90;;;;;;5031069;28;20209;-52
2022/04/08 00:47:27;;;;;;;6.13;4.00;;;6.50;99.90;;;;;;5031179;28;20210;-52
2022/04/08 00:49:57;;;;;;;5.77;4.50;;;6.50;99.90;;;;;;5031745;28;20585;-52
2022/04/08 00:52:25;;;;;;;8.27;4.30;;;6.50;99.90;;;;;;5030676;28;20629;-52
2022/04/08 00:54:54;;;;;;;4.83;4.10;;;6.50;99.90;;;;;;5031774;28;20260;-52
2022/04/08 00:57:23;;;;;;;8.40;4.67;;;6.50;99.90;;;;;;5031432;28;20740;-52
2022/04/08 00:59:51;;;;;;;7.33;4.70;;;6.50;99.90;;;;;;5040308;28;20224;-52
2022/04/08 01:02:20;;;;;;;8.70;4.87;;;6.50;99.90;;;;;;5051253;28;20647;-54
2022/04/08 01:04:48;;;;;;;6.80;4.50;;;6.50;99.90;;;;;;5051639;28;20282;-52
2022/04/08 01:07:18;;;;;;;7.70;4.80;;;6.50;99.90;;;;;;5051303;28;20208;-52
2022/04/08 01:09:46;;;;;;;7.93;4.83;;;6.50;99.90;;;;;;5051475;28;20644;-52
2022/04/08 01:12:14;;;;;;;7.00;4.97;;;6.50;99.90;;;;;;5050445;28;20231;-52
2022/04/08 01:14:42;;;;;;;7.20;5.40;;;6.50;99.90;;;;;;5051195;28;20257;-52
2022/04/08 01:17:10;;;;;;;6.57;5.63;;;6.50;99.90;;;;;;5051557;28;20202;-52
2022/04/08 01:19:39;;;;;;;8.40;5.63;;;6.50;99.90;;;;;;5050374;28;20255;-52
2022/04/08 01:22:07;;;;;;;9.57;5.30;;;6.50;99.90;;;;;;5050403;28;20277;-52
2022/04/08 01:24:38;;;;;;;8.70;6.27;;;6.50;99.90;;;;;;5050602;28;20274;-52
2022/04/08 01:27:07;;;;;;;6.30;5.70;;;6.40;99.90;;;;;;5051342;28;20211;-52
2022/04/08 01:29:35;;;;;;;9.47;5.50;;;6.40;99.90;;;;;;5050798;28;20216;-52
2022/04/08 01:32:04;;;;;;;7.70;5.37;;;6.40;99.90;;;;;;5050544;28;20306;-52
2022/04/08 01:34:32;;;;;;;7.23;5.13;;;6.40;99.90;;;;;;5038885;28;20210;-52
2022/04/08 01:37:00;;;;;;;7.07;4.70;;;6.40;99.90;;;;;;5030733;28;20862;-52
2022/04/08 01:39:29;;;;;;;9.80;4.80;;;6.40;99.90;;;;;;5048332;28;20236;-52
2022/04/08 01:41:57;;;;;;;7.27;4.80;;;6.40;99.90;;;;;;5050407;28;20291;-52
2022/04/08 01:44:27;;;;;;;6.83;4.53;;;6.40;99.90;;;;;;5051013;28;20255;-52
2022/04/08 01:46:55;;;;;;;8.17;3.93;;;6.40;99.90;;;;;;5051351;28;20210;-52
2022/04/08 01:49:23;;;;;;;7.07;3.70;;;6.30;99.90;;;;;;5050358;28;20267;-52
2022/04/08 01:51:51;;;;;;;4.33;3.33;;;6.20;99.90;;;;;;5049993;28;20226;-52
2022/04/08 01:54:19;;;;;;;6.00;3.47;;;6.10;99.90;;;;;;5050592;28;20610;-52
2022/04/08 01:56:48;;;;;;;4.97;3.00;;;6.00;99.90;;;;;;5050557;28;20910;-52
2022/04/08 01:59:16;;;;;;;5.10;3.00;;;6.10;99.90;;;;;;5050833;28;20204;-52
2022/04/08 02:01:48;;;;;;;5.70;2.30;;;6.00;99.90;;;;;;5050665;28;20265;-52
2022/04/08 02:04:17;;;;;;;4.03;2.40;;;6.10;99.90;;;;;;5054064;28;20686;-51
2022/04/08 02:06:45;;;;;;;4.40;2.60;;;6.10;99.90;;;;;;5054129;28;20672;-52
2022/04/08 02:09:13;;;;;;;8.97;5.47;;;6.10;99.90;;;;;;5054253;28;20261;-51
2022/04/08 02:11:43;;;;;;;4.07;3.60;;;6.00;99.90;;;;;;5054520;28;20232;-52
2022/04/08 02:14:11;;;;;;;5.17;3.20;;;6.00;99.90;;;;;;5054188;28;20252;-52
2022/04/08 02:16:39;;;;;;;5.13;3.00;;;5.90;99.90;;;;;;5054257;28;20208;-51
2022/04/08 02:19:09;;;;;;;5.47;3.40;;;6.00;99.90;;;;;;5053823;28;20213;-52
2022/04/08 02:21:37;;;;;;;3.10;2.40;;;6.00;99.90;;;;;;5054394;28;20236;-51
2022/04/08 02:24:06;;;;;;;4.10;2.20;;;6.10;99.90;;;;;;5054267;28;20207;-52
2022/04/08 02:26:34;;;;;;;4.50;2.57;;;6.10;99.90;;;;;;5054003;28;20211;-51
2022/04/08 02:29:02;;;;;;;5.40;2.80;;;6.10;99.90;;;;;;5054462;28;20211;-52
2022/04/08 02:31:30;;;;;;;5.80;2.70;;;6.20;99.90;;;;;;5054059;28;20280;-51
2022/04/08 02:33:58;;;;;;;4.40;3.03;;;6.20;99.90;;;;;;5054513;28;20205;-50
2022/04/08 02:36:28;;;;;;;3.87;2.87;;;6.20;99.90;;;;;;5054772;28;20202;-50
2022/04/08 02:38:56;;;;;;;7.80;4.53;;;6.20;99.90;;;;;;5054075;28;20259;-52
2022/04/08 02:41:25;;;;;;;5.70;2.40;;;6.10;99.90;;;;;;5053804;28;20712;-52
2022/04/08 02:43:53;;;;;;;4.73;3.10;;;6.10;99.90;;;;;;5053537;28;20275;-53
2022/04/08 02:46:21;;;;;;;5.43;2.60;;;6.20;99.90;;;;;;5053810;28;20671;-52
2022/04/08 02:48:50;;;;;;;3.70;2.40;;;6.20;99.90;;;;;;5053642;28;20206;-52
2022/04/08 02:51:18;;;;;;;8.77;5.17;;;6.10;99.90;;;;;;5054092;28;20238;-52
2022/04/08 02:53:48;;;;;;;7.80;3.30;;;6.10;99.90;;;;;;5052879;28;20214;-52
2022/04/08 02:56:16;;;;;;;9.50;4.30;;;6.00;99.90;;;;;;5053989;28;20614;-52
2022/04/08 02:58:47;;;;;;;4.07;3.00;;;6.00;99.90;;;;;;5053430;28;20632;-52
2022/04/08 03:01:15;;;;;;;6.70;2.73;;;6.00;99.90;;;;;;5033782;28;20243;-52
2022/04/08 03:03:43;;;;;;;5.93;2.97;;;6.00;99.90;;;;;;5033249;28;20633;-52
2022/04/08 03:06:11;;;;;;;4.87;2.47;;;6.10;99.90;;;;;;5033253;28;20206;-52
2022/04/08 03:08:39;;;;;;;6.47;2.50;;;6.10;99.90;;;;;;5038920;28;20262;-52
2022/04/08 03:11:09;;;;;;;4.70;2.43;;;6.00;99.90;;;;;;5053480;28;20215;-52
2022/04/08 03:13:37;;;;;;;6.10;2.93;;;6.10;99.90;;;;;;5053014;28;20625;-52
2022/04/08 03:16:05;;;;;;;8.97;3.90;;;6.10;99.90;;;;;;5052808;28;20636;-52
2022/04/08 03:18:34;;;;;;;8.67;3.63;;;6.00;99.90;;;;;;5052222;28;20214;-52
2022/04/08 03:21:02;;;;;;;4.70;2.70;;;6.00;99.90;;;;;;5052796;28;20704;-52
2022/04/08 03:23:30;;;;;;;5.33;3.20;;;6.00;99.90;;;;;;5052903;28;20218;-52
2022/04/08 03:26:30;;;;;;;6.37;3.27;;;6.00;99.90;;;;;;5053804;28;20211;-52
2022/04/08 03:30:02;;;;;;;4.10;2.73;;;6.10;99.90;;;;;;5052498;28;20247;-51
2022/04/08 03:32:46;;;;;;;5.57;3.03;;;6.00;99.90;;;;;;4967689;28;20235;-51
2022/04/08 03:35:14;;;;;;;3.53;2.50;;;6.00;99.90;;;;;;5011135;28;20686;-51
2022/04/08 03:37:42;;;;;;;6.47;3.03;;;6.10;99.90;;;;;;5010693;28;20743;-52
2022/04/08 03:40:12;;;;;;;6.17;2.87;;;6.10;99.90;;;;;;5011177;28;20297;-52
2022/04/08 03:42:40;;;;;;;5.27;2.73;;;6.00;99.90;;;;;;5010267;28;20229;-52
2022/04/08 03:45:08;;;;;;;5.90;2.73;;;6.00;99.90;;;;;;5010475;28;20601;-52
2022/04/08 03:47:37;;;;;;;4.77;2.83;;;6.00;99.90;;;;;;5010616;28;20661;-52
2022/04/08 03:50:07;;;;;;;7.10;3.23;;;6.00;99.90;;;;;;5010341;28;20287;-51
2022/04/08 03:52:36;;;;;;;7.03;3.00;;;6.00;99.90;;;;;;5010211;28;20188;-51
2022/04/08 03:55:05;;;;;;;5.77;3.10;;;6.00;99.90;;;;;;5010281;28;20668;-52
2022/04/08 03:57:33;;;;;;;5.13;2.87;;;6.00;99.90;;;;;;5010530;28;20211;-51
2022/04/08 04:00:01;;;;;;;8.47;2.77;;;6.00;99.90;;;;;;5010016;28;20278;-52
2022/04/08 04:02:29;;;;;;;6.77;2.80;;;6.00;99.90;;;;;;5009792;28;20222;-51
2022/04/08 04:04:59;;;;;;;6.83;3.07;;;6.00;99.90;;;;;;5010450;28;20704;-51
2022/04/08 04:07:29;;;;;;;4.37;2.50;;;6.00;99.90;;;;;;5010099;28;20243;-52
2022/04/08 04:09:59;;;;;;;3.53;2.50;;;6.00;99.90;;;;;;5027272;28;20679;-51
2022/04/08 04:12:27;;;;;;;3.93;2.60;;;6.00;99.90;;;;;;5051892;28;20607;-51
2022/04/08 04:14:56;;;;;;;7.37;2.90;;;6.00;99.90;;;;;;5052493;28;20271;-52
2022/04/08 04:17:27;;;;;;;5.97;2.60;;;5.90;99.90;;;;;;5052381;28;20203;-51
2022/04/08 04:19:55;;;;;;;6.53;2.77;;;5.90;99.90;;;;;;5051754;28;20626;-52
2022/04/08 04:22:23;;;;;;;7.27;2.77;;;5.80;99.90;;;;;;5051139;28;20223;-52
2022/04/08 04:24:52;;;;;;;5.40;2.90;;;5.90;99.90;;;;;;5052016;28;20207;-52
2022/04/08 04:27:20;;;;;;;4.70;2.80;;;5.90;99.90;;;;;;5051328;28;20210;-52
2022/04/08 04:29:49;;;;;;;5.60;2.77;;;5.90;99.90;;;;;;5051877;28;20213;-51
2022/04/08 04:32:19;;;;;;;4.83;3.10;;;5.80;99.90;;;;;;5051304;28;20226;-51
2022/04/08 04:34:47;;;;;;;8.63;3.03;;;5.80;99.90;;;;;;5051686;28;20667;-52
2022/04/08 04:37:15;;;;;;;5.13;2.90;;;5.80;99.90;;;;;;5051993;28;20315;-52
2022/04/08 04:39:43;;;;;;;4.93;2.67;;;5.80;99.90;;;;;;5051633;28;20257;-51
2022/04/08 04:42:12;;;;;;;6.47;2.97;;;5.80;99.90;;;;;;5051590;28;20230;-51
2022/04/08 04:44:41;;;;;;;5.77;3.03;;;5.80;99.90;;;;;;5051042;28;20243;-52
2022/04/08 04:47:09;;;;;;;5.13;2.80;;;5.80;99.90;;;;;;5051474;28;20691;-52
2022/04/08 04:49:37;;;;;;;6.17;3.10;;;5.80;99.90;;;;;;5051863;28;20206;-52
2022/04/08 04:52:06;;;;;;;5.73;2.70;;;5.70;99.90;;;;;;5051038;28;20230;-52
2022/04/08 04:54:34;;;;;;;6.90;3.07;;;5.70;99.90;;;;;;5051790;28;20212;-51
2022/04/08 04:57:02;;;;;;;5.13;2.97;;;5.70;99.90;;;;;;5051211;28;20210;-51
2022/04/08 04:59:32;;;;;;;4.23;2.90;;;5.60;99.90;;;;;;5051377;28;20199;-51
2022/04/08 05:02:00;;;;;;;6.13;3.20;;;5.60;99.90;;;;;;5050451;28;20229;-51
2022/04/08 05:04:30;;;;;;;7.97;3.40;;;5.50;99.90;;;;;;5051709;28;20288;-51
2022/04/08 05:06:58;;;;;;;6.53;3.40;;;5.50;99.90;;;;;;5051294;28;20202;-52
2022/04/08 05:09:26;;;;;;;5.50;3.63;;;5.40;99.90;;;;;;5051502;28;20267;-51
2022/04/08 05:11:54;;;;;;;5.90;3.20;;;5.40;99.90;;;;;;5051063;28;20264;-51
2022/04/08 05:14:24;;;;;;;5.83;3.20;;;5.40;99.90;;;;;;5051079;28;20209;-51
2022/04/08 05:16:55;;;;;;;6.70;3.40;;;5.40;99.90;;;;;;5051343;28;20205;-51
2022/04/08 05:19:24;;;;;;;9.10;3.13;;;5.40;99.90;;;;;;5050437;28;20197;-51
2022/04/08 05:21:53;;;;;;;6.10;3.00;;;5.50;99.90;;;;;;5050800;28;20253;-51
2022/04/08 05:24:21;;;;;;;6.03;3.10;;;5.60;99.90;;;;;;5051028;28;20263;-51
2022/04/08 05:26:49;;;;;;;5.50;2.70;;;5.80;99.90;;;;;;5051376;28;20209;-51
2022/04/08 05:29:17;;;;;;;5.53;3.10;;;6.10;99.90;;;;;;5051212;28;20203;-51
2022/04/08 05:31:46;;;;;;;7.23;3.57;;;6.20;99.90;;;;;;5050472;28;20231;-52
2022/04/08 05:34:15;;;;;;;8.30;3.67;;;6.10;99.90;;;;;;5046425;28;20203;-51
2022/04/08 05:36:44;;;;;;;7.47;3.10;;;6.10;99.90;;;;;;5041702;28;20210;-52
2022/04/08 05:39:12;;;;;;;5.17;3.13;;;6.30;99.90;;;;;;5050386;28;20228;-52
2022/04/08 05:41:40;;;;;;;6.80;3.10;;;6.40;99.90;;;;;;5050125;28;20267;-52
2022/04/08 05:44:08;;;;;;;6.57;2.93;;;6.40;99.90;;;;;;5049943;28;20275;-52
2022/04/08 05:46:36;;;;;;;5.53;2.90;;;6.30;99.90;;;;;;5050121;28;20203;-52
2022/04/08 05:49:05;;;;;;;10.30;3.50;;;6.30;99.90;;;;;;5041881;28;20652;-51
2022/04/08 05:51:35;;;;;;;4.27;2.80;;;6.20;99.90;;;;;;5040889;28;20233;-51
2022/04/08 05:54:08;;;;;;;7.43;3.03;;;6.60;99.90;;;;;;5032073;28;20204;-51
2022/04/08 05:56:36;;;;;;;4.83;2.90;;;6.70;99.90;;;;;;5044884;28;20199;-51
2022/04/08 05:59:04;;;;;;;5.10;3.40;;;6.70;99.90;;;;;;5051113;28;20262;-51
2022/04/08 06:01:33;;;;;;;6.23;3.27;;;6.90;99.90;;;;;;5051221;28;20279;-50
2022/04/08 06:04:01;;;;;;;3.77;2.80;;;7.00;99.90;;;;;;5050093;28;20224;-51
2022/04/08 06:06:29;;;;;;;7.50;2.87;;;7.00;99.90;;;;;;5049772;28;20642;-51
2022/04/08 06:09:02;;;;;;;5.37;2.60;;;7.30;99.90;;;;;;5051074;28;20215;-51
2022/04/08 06:11:31;;;;;;;7.33;2.67;;;7.20;99.90;;;;;;5050735;28;20706;-51
2022/04/08 06:13:59;;;;;;;8.07;2.97;;;7.30;99.90;;;;;;5050769;28;20261;-51
2022/04/08 06:16:27;;;;;;;7.67;2.90;;;7.20;99.90;;;;;;5050676;28;20246;-51
2022/04/08 06:18:56;;;;;;;4.47;2.50;;;7.20;99.90;;;;;;5050669;28;20302;-51
2022/04/08 06:21:24;;;;;;;7.00;2.73;;;7.60;99.90;;;;;;5050583;28;20267;-51
2022/04/08 06:23:52;;;;;;;6.10;3.00;;;8.00;99.90;;;;;;5050621;28;20224;-51
2022/04/08 06:26:22;;;;;;;5.83;2.87;;;8.10;99.90;;;;;;5050587;28;20256;-51
2022/04/08 06:28:50;;;;;;;7.67;3.20;;;8.30;99.90;;;;;;5048484;28;20250;-52
2022/04/08 06:31:18;;;;;;;5.30;2.40;;;8.70;99.90;;;;;;5030895;28;20288;-51
2022/04/08 06:33:46;;;;;;;7.27;3.03;;;8.90;99.90;;;;;;5030136;28;20206;-52
2022/04/08 06:36:14;;;;;;;5.97;2.97;;;9.30;99.90;;;;;;5031047;28;20773;-52
2022/04/08 06:38:43;;;;;;;5.90;2.97;;;9.50;99.90;;;;;;5030706;28;20225;-51
2022/04/08 06:41:11;;;;;;;7.57;2.70;;;9.40;99.90;;;;;;5030993;28;20230;-51
2022/04/08 06:43:40;;;;;;;5.67;2.93;;;9.70;99.90;;;;;;5030017;28;20234;-52
2022/04/08 06:46:08;;;;;;;5.90;2.80;;;9.90;99.90;;;;;;5031050;28;20214;-51
2022/04/08 06:48:36;;;;;;;7.10;3.03;;;9.70;99.90;;;;;;5030501;28;20206;-51
2022/04/08 06:51:05;;;;;;;4.77;2.50;;;9.60;99.90;;;;;;5033105;28;20758;-52
2022/04/08 06:53:33;;;;;;;9.90;2.90;;;9.00;99.90;;;;;;5035491;28;20213;-52
2022/04/08 06:56:02;;;;;;;4.07;2.57;;;8.80;99.90;;;;;;5041916;28;20236;-52
2022/04/08 06:58:33;;;;;;;6.13;2.60;;;8.70;99.90;;;;;;5053301;28;20259;-52
2022/04/08 07:01:02;;;;;;;9.67;3.03;;;8.80;99.90;;;;;;5053355;28;20229;-52
2022/04/08 07:03:31;;;;;;;5.03;2.50;;;8.50;99.90;;;;;;5052178;28;20226;-52
2022/04/08 07:05:59;;;;;;;7.17;2.90;;;8.40;99.90;;;;;;5052985;28;20225;-52
2022/04/08 07:08:27;;;;;;;5.93;2.70;;;8.10;99.90;;;;;;5053516;28;20199;-52
2022/04/08 07:10:55;;;;;;;4.70;2.60;;;8.20;99.90;;;;;;5053516;28;20930;-52
2022/04/08 07:13:23;;;;;;;4.23;2.40;;;8.70;99.90;;;;;;5052546;28;20256;-52
2022/04/08 07:15:51;;;;;;;6.33;2.97;;;8.60;99.90;;;;;;5052179;28;20208;-52
2022/04/08 07:18:22;;;;;;;7.33;3.00;;;8.70;99.90;;;;;;5053109;28;20212;-52
2022/04/08 07:20:50;;;;;;;6.53;2.90;;;9.30;99.90;;;;;;5045250;28;20225;-52
2022/04/08 07:23:18;;;;;;;4.73;2.60;;;9.70;99.90;;;;;;5031433;28;20230;-52
2022/04/08 07:25:46;;;;;;;5.33;2.73;;;9.20;99.90;;;;;;5038838;28;20214;-53
2022/04/08 07:28:15;;;;;;;4.40;2.30;;;9.00;99.90;;;;;;5053312;28;20259;-52
2022/04/08 07:30:43;;;;;;;4.70;2.73;;;8.90;99.90;;;;;;5035460;28;20226;-52
2022/04/08 07:33:11;;;;;;;5.50;2.90;;;8.80;99.90;;;;;;5032279;28;20261;-52
2022/04/08 07:35:41;;;;;;;6.73;3.03;;;8.80;99.90;;;;;;5032262;28;20199;-52
2022/04/08 07:38:13;;;;;;;8.00;3.00;;;8.90;99.90;;;;;;5033138;28;20674;-52
2022/04/08 07:40:41;;;;;;;4.90;3.10;;;8.80;99.90;;;;;;5032945;28;20280;-52
2022/04/08 07:43:10;;;;;;;5.97;3.20;;;8.70;99.90;;;;;;5034825;28;20255;-52
2022/04/08 07:45:38;;;;;;;5.43;2.60;;;8.70;99.90;;;;;;5032930;28;20210;-52
2022/04/08 07:48:06;;;;;;;5.40;2.90;;;8.70;99.90;;;;;;5032470;28;20298;-52
2022/04/08 07:50:37;;;;;;;6.93;3.53;;;8.70;99.90;;;;;;5036184;28;20233;-52
2022/04/08 07:53:06;;;;;;;6.38;3.53;;;8.80;99.90;;;;;;5052091;28;20483;-52
2022/04/08 07:55:34;;;;;;;6.32;4.20;;;8.80;99.90;;;;;;5052233;28;20440;-52
2022/04/08 07:58:04;;;;;;;6.90;3.73;;;9.00;99.90;;;;;;5044775;28;20544;-52
2022/04/08 08:00:32;;;;;;;5.07;3.93;;;8.90;99.90;;;;;;5042931;28;20267;-52
2022/04/08 08:03:01;;;;;;;10.87;4.80;;;8.80;99.90;;;;;;5051621;28;20229;-52
2022/04/08 08:05:31;;;;;;;7.13;4.53;;;8.80;99.90;;;;;;5044986;28;20317;-52
2022/04/08 08:08:01;;;;;;;8.63;4.63;;;8.90;99.90;;;;;;5032087;28;20210;-52
2022/04/08 08:10:32;;;;;;;7.13;4.80;;;8.90;99.90;;;;;;5035884;28;20225;-52
2022/04/08 08:13:01;;;;;;;5.83;3.80;;;8.90;99.90;;;;;;5044801;28;20239;-52
2022/04/08 08:15:31;;;;;;;7.40;3.93;;;8.80;99.90;;;;;;5052149;28;20205;-52
2022/04/08 08:17:59;;;;;;;5.83;3.97;;;8.80;99.90;;;;;;5052524;28;20236;-52
2022/04/08 08:20:28;;;;;;;7.30;4.00;;;8.90;99.90;;;;;;5032535;28;20238;-52
2022/04/08 08:22:56;;;;;;;7.00;4.40;;;9.00;99.90;;;;;;5031886;28;20215;-52
2022/04/08 08:25:24;;;;;;;6.17;4.20;;;9.00;99.90;;;;;;5031279;28;20691;-52
2022/04/08 08:27:56;;;;;;;7.37;4.33;;;9.00;99.90;;;;;;5032186;28;20264;-52
2022/04/08 08:30:24;;;;;;;7.43;6.10;;;9.00;99.90;;;;;;5046791;28;20287;-56
2022/04/08 08:32:52;;;;;;;7.13;4.10;;;9.10;99.90;;;;;;5051586;28;20202;-55
2022/04/08 08:35:21;;;;;;;5.03;3.80;;;9.00;99.90;;;;;;5051425;28;20214;-52
2022/04/08 08:37:50;;;;;;;5.93;4.27;;;9.10;99.90;;;;;;5051839;28;20213;-53
2022/04/08 08:40:20;;;;;;;6.97;4.30;;;9.00;99.90;;;;;;5051752;28;20303;-52
2022/04/08 08:42:49;;;;;;;6.90;5.20;;;9.00;99.90;;;;;;5050676;28;20209;-52
2022/04/08 08:45:18;;;;;;;6.43;4.30;;;9.10;99.90;;;;;;5049882;28;20590;-52
2022/04/08 08:47:48;;;;;;;7.40;5.10;;;9.10;99.90;;;;;;5051505;28;20242;-52
2022/04/08 08:50:18;;;;;;;5.43;4.57;;;9.20;99.90;;;;;;5051530;28;20225;-53
2022/04/08 08:52:50;;;;;;;6.87;4.83;;;9.20;99.90;;;;;;5050803;28;20212;-52
2022/04/08 08:55:19;;;;;;;6.83;4.63;;;9.20;99.90;;;;;;5051322;28;20646;-52
2022/04/08 08:57:48;;;;;;;6.83;5.13;;;9.20;99.90;;;;;;5051577;28;20201;-52
2022/04/08 09:00:20;;;;;;;6.13;5.43;;;9.20;99.90;;;;;;5050932;28;20257;-53
2022/04/08 09:02:49;;;;;;;7.77;5.87;;;9.20;99.90;;;;;;5050732;28;20682;-52
2022/04/08 09:05:19;;;;;;;5.80;5.30;;;9.30;99.90;;;;;;5051100;28;20229;-52
2022/04/08 09:07:58;;;;;;;8.03;5.93;;;9.40;99.90;;;;;;5051469;28;20209;-52
2022/04/08 09:10:28;;;;;;;7.10;6.00;;;9.40;99.90;;;;;;5051152;28;20229;-52
2022/04/08 09:12:57;;;;;;;6.73;5.90;;;9.40;99.90;;;;;;5050361;28;20208;-52
2022/04/08 09:15:27;;;;;;;7.47;6.33;;;9.40;99.90;;;;;;5050409;28;20233;-53
2022/04/08 09:18:09;;;;;;;8.80;6.27;;;9.60;99.90;;;;;;5051245;28;20209;-52
2022/04/08 09:20:42;;;;;;;8.23;7.43;;;9.60;99.90;;;;;;5049191;28;20237;-52
2022/04/08 09:23:11;;;;;;;7.77;5.93;;;9.60;99.90;;;;;;5050548;28;20662;-52
2022/04/08 09:25:40;;;;;;;6.07;5.47;;;9.50;99.90;;;;;;5051372;28;20267;-52
2022/04/08 09:28:11;;;;;;;8.23;5.80;;;9.50;99.90;;;;;;5050761;28;20305;-52
2022/04/08 09:30:41;;;;;;;8.63;5.57;;;9.60;99.90;;;;;;5033708;28;20222;-52
2022/04/08 09:33:18;;;;;;;8.93;5.70;;;9.70;99.90;;;;;;5030547;28;20210;-52
2022/04/08 09:35:48;;;;;;;8.13;5.83;;;9.80;99.90;;;;;;5031088;28;20252;-52
2022/04/08 09:38:19;;;;;;;7.33;5.63;;;9.60;99.90;;;;;;5031709;28;20260;-52
2022/04/08 09:40:48;;;;;;;8.27;6.13;;;9.60;99.90;;;;;;5030972;28;20233;-50
2022/04/08 09:43:18;;;;;;;6.37;5.70;;;9.70;99.90;;;;;;5030731;28;20252;-52
2022/04/08 09:45:47;;;;;;;10.50;6.00;;;9.70;99.90;;;;;;5030836;28;20226;-52
2022/04/08 09:48:16;;;;;;;7.33;5.63;;;9.70;99.90;;;;;;5031022;28;20256;-52
2022/04/08 09:50:50;;;;;;;8.50;6.80;;;9.80;99.90;;;;;;5035580;28;20256;-51
2022/04/08 09:53:20;;;;;;;8.52;6.65;;;9.90;99.90;;;;;;5050489;28;20436;-52
2022/04/08 09:55:49;;;;;;;9.27;6.60;;;10.20;99.90;;;;;;5051003;28;20202;-52
2022/04/08 09:58:18;;;;;;;8.80;7.10;;;10.30;99.90;;;;;;5038536;28;20264;-52
2022/04/08 10:00:49;;;;;;;7.28;6.50;;;10.40;99.90;;;;;;5046240;28;20436;-52
2022/04/08 10:03:18;;;;;;;6.67;5.60;;;10.70;99.90;;;;;;5050050;28;20206;-52
2022/04/08 10:05:47;;;;;;;6.80;5.93;;;10.70;99.90;;;;;;5049350;28;20217;-52
2022/04/08 10:08:16;;;;;;;7.87;6.20;;;10.60;99.90;;;;;;5050289;28;20201;-52
2022/04/08 10:10:52;;;;;;;7.80;6.37;;;10.60;99.90;;;;;;5050603;28;20225;-52
2022/04/08 10:13:32;;;;;;;7.03;5.93;;;10.50;99.90;;;;;;5034586;28;20213;-52
2022/04/08 10:16:14;;;;;;;6.20;5.10;;;10.60;99.90;;;;;;5030618;28;20216;-52
2022/04/08 10:18:43;;;;;;;7.53;4.97;;;10.60;99.90;;;;;;5030698;28;20214;-52
2022/04/08 10:21:12;;;;;;;6.67;5.27;;;10.70;99.90;;;;;;5030613;28;20714;-52
2022/04/08 10:23:46;;;;;;;5.73;5.20;;;10.50;99.90;;;;;;5029603;28;20213;-52
2022/04/08 10:26:19;;;;;;;7.40;5.73;;;10.60;99.90;;;;;;5034162;28;20292;-52
2022/04/08 10:28:47;;;;;;;5.50;5.00;;;10.70;99.90;;;;;;5034440;28;20671;-52
2022/04/08 10:31:19;;;;;;;6.20;4.90;;;10.60;99.90;;;;;;5034456;28;20226;-52
2022/04/08 10:33:50;;;;;;;7.30;4.93;;;10.50;99.90;;;;;;5033794;28;20210;-52
2022/04/08 10:36:18;;;;;;;6.13;4.60;;;10.40;99.90;;;;;;5034289;28;20573;-51
2022/04/08 10:38:47;;;;;;;7.40;4.40;;;10.30;99.90;;;;;;5034399;28;20726;-52
2022/04/08 10:41:15;;;;;;;6.03;5.43;;;10.30;99.90;;;;;;5034420;28;20280;-52
2022/04/08 10:43:44;;;;;;;6.00;5.40;;;10.30;99.90;;;;;;5032066;28;20214;-51
2022/04/08 10:46:13;;;;;;;6.00;5.13;;;10.00;99.90;;;;;;5034281;28;20237;-51
2022/04/08 10:48:43;;;;;;;6.63;5.10;;;9.90;99.90;;;;;;5033716;28;20268;-51
2022/04/08 10:51:13;;;;;;;7.87;5.73;;;9.90;99.90;;;;;;5042468;28;20229;-51
2022/04/08 10:53:42;;;;;;;6.60;5.57;;;9.90;99.90;;;;;;5053063;28;20247;-51
2022/04/08 10:56:13;;;;;;;11.93;10.73;;;9.70;99.90;;;;;;5043036;28;20740;-51
2022/04/08 10:58:44;;;;;;;7.30;5.43;;;9.40;99.90;;;;;;5036874;28;20733;-51
2022/04/08 11:01:17;;;;;;;7.60;5.17;;;9.40;99.90;;;;;;5053626;28;20272;-52
2022/04/08 11:03:55;;;;;;;6.10;5.50;;;9.50;99.90;;;;;;5053133;28;20263;-52
2022/04/08 11:06:26;;;;;;;7.73;5.17;;;9.60;99.90;;;;;;5049667;28;20222;-52
2022/04/08 11:08:55;;;;;;;5.60;5.10;;;9.60;99.90;;;;;;5040784;28;20732;-52
2022/04/08 11:11:30;;;;;;;5.13;4.63;;;9.60;99.90;;;;;;5048768;28;20226;-51
2022/04/08 11:13:58;;;;;;;7.20;4.90;;;9.50;99.90;;;;;;5034859;28;20440;-51
2022/04/08 11:16:29;;;;;;;7.53;4.83;;;9.70;99.90;;;;;;5032683;28;20268;-51
2022/04/08 11:18:59;;;;;;;5.87;4.33;;;9.70;99.90;;;;;;5033044;28;20214;-52
2022/04/08 11:21:29;;;;;;;6.90;4.83;;;9.60;99.90;;;;;;5030426;28;20230;-52
2022/04/08 11:23:59;;;;;;;8.37;5.00;;;9.50;99.90;;;;;;5036929;28;20229;-52
2022/04/08 11:26:29;;;;;;;5.67;4.80;;;9.40;99.90;;;;;;5032992;28;20280;-51
2022/04/08 11:28:57;;;;;;;5.10;4.47;;;9.50;99.90;;;;;;5032452;28;20963;-52
2022/04/08 11:31:36;;;;;;;5.63;4.70;;;9.50;99.90;;;;;;5032482;28;20257;-51
2022/04/08 11:34:07;;;;;;;5.23;4.43;;;9.60;99.90;;;;;;5032605;28;20301;-51
2022/04/08 11:36:36;;;;;;;5.13;4.27;;;9.50;99.90;;;;;;5042208;28;20213;-52
2022/04/08 11:39:05;;;;;;;5.97;4.13;;;9.70;99.90;;;;;;5052514;28;20209;-51
2022/04/08 11:41:35;;;;;;;4.53;4.10;;;9.60;99.90;;;;;;5052880;28;20226;-52
2022/04/08 11:44:05;;;;;;;6.40;4.47;;;9.60;99.90;;;;;;5051591;28;20225;-52
2022/04/08 11:46:33;;;;;;;6.23;4.37;;;9.50;99.90;;;;;;5052702;28;20290;-52
2022/04/08 11:49:05;;;;;;;5.00;4.37;;;9.40;99.90;;;;;;5052610;28;20205;-52
2022/04/08 11:51:33;;;;;;;6.83;4.30;;;9.50;99.90;;;;;;5052034;28;20234;-52
2022/04/08 11:54:03;;;;;;;7.20;4.30;;;9.60;99.90;;;;;;5051638;28;20213;-52
2022/04/08 11:56:31;;;;;;;6.50;4.10;;;9.70;99.90;;;;;;5052479;28;20202;-52
2022/04/08 11:59:01;;;;;;;7.07;4.30;;;9.70;99.90;;;;;;5051606;28;20251;-52
2022/04/08 12:01:33;;;;;;;4.93;4.13;;;9.70;99.90;;;;;;5037830;28;20280;-52
2022/04/08 12:04:02;;;;;;;5.17;3.80;;;9.50;99.90;;;;;;5030922;28;20208;-52
2022/04/08 12:06:39;;;;;;;7.43;4.40;;;9.40;99.90;;;;;;5031345;28;20233;-51
2022/04/08 12:09:09;;;;;;;6.20;3.87;;;9.20;99.90;;;;;;5041572;28;20256;-51
2022/04/08 12:11:39;;;;;;;11.03;4.97;;;9.30;99.90;;;;;;5051985;28;20230;-52
2022/04/08 12:14:09;;;;;;;7.73;4.30;;;9.30;99.90;;;;;;5050840;28;20561;-51
2022/04/08 12:16:38;;;;;;;7.57;4.10;;;9.40;99.90;;;;;;5052079;28;20248;-53
2022/04/08 12:19:08;;;;;;;7.03;4.87;;;9.30;99.90;;;;;;5051698;28;20209;-51
2022/04/08 12:21:58;;;;;;;8.73;4.20;;;9.30;99.90;;;;;;5051157;28;20265;-52
2022/04/08 12:24:29;;;;;;;4.90;4.07;;;9.30;99.90;;;;;;5051771;28;20209;-51
2022/04/08 12:26:57;;;;;;;4.30;3.90;;;9.30;99.90;;;;;;5051370;28;20228;-52
2022/04/08 12:29:29;;;;;;;6.53;4.70;;;9.20;99.90;;;;;;5051590;28;20209;-51
2022/04/08 12:31:58;;;;;;;6.10;5.07;;;9.20;99.90;;;;;;5051385;28;20235;-52
2022/04/08 12:34:27;;;;;;;7.20;5.20;;;9.10;99.90;;;;;;5051576;28;20263;-51
2022/04/08 12:36:56;;;;;;;7.10;5.00;;;9.00;99.90;;;;;;5052165;28;20206;-52
2022/04/08 12:39:24;;;;;;;5.73;5.13;;;9.10;99.90;;;;;;5051602;28;20623;-51
2022/04/08 12:41:53;;;;;;;7.23;5.00;;;9.10;99.90;;;;;;5050570;28;20708;-52
2022/04/08 12:44:22;;;;;;;9.87;4.73;;;9.00;99.90;;;;;;5035130;28;20208;-52
2022/04/08 12:46:51;;;;;;;5.27;4.63;;;9.00;99.90;;;;;;5051032;28;20217;-52
2022/04/08 12:49:19;;;;;;;5.17;4.67;;;8.90;99.90;;;;;;5051847;28;20228;-51
2022/04/08 12:51:48;;;;;;;7.07;4.83;;;8.90;99.90;;;;;;5050543;28;20935;-51
2022/04/08 12:54:18;;;;;;;8.03;4.50;;;8.90;99.90;;;;;;5051848;28;20201;-52
2022/04/08 12:56:46;;;;;;;8.30;4.63;;;8.90;99.90;;;;;;5050443;28;20256;-51
2022/04/08 12:59:15;;;;;;;5.67;4.70;;;9.00;99.90;;;;;;5051540;28;20215;-51
2022/04/08 13:01:43;;;;;;;5.90;4.67;;;9.00;99.90;;;;;;5050366;28;20635;-51
2022/04/08 13:04:11;;;;;;;7.83;5.10;;;8.90;99.90;;;;;;5051342;28;20259;-52
2022/04/08 13:06:40;;;;;;;5.63;4.67;;;8.90;99.90;;;;;;5050165;28;20842;-51